INDIA METEOROLOGICAL DEPARTMENT, R.M.C. NEW DELHI
Dated:13 - 6 - 2024
METARS OF ALTERNATE AIRPORTS
Delhi      
VIDP 131930Z 24008KT 4000 HZ FEW100 36/13 Q0999 NOSIG=
Lucknow    
VILK 131930Z 26004KT 5000 HZ SCT020 BKN100 35/19 Q0998 NOSIG=
Jaipur     
VIJP 131930Z 27005KT 4000 HZ SCT100 31/22 Q1003 NOSIG=
Ahmedabad  
VAAH 131930Z 22008KT 3500 HZ FEW018 BKN070 30/22 Q1003 TEMPO 3000 -RA=
Mumbai     
VABB 131930Z 26006KT 2000 -TSRA SCT018 SCT025 FEW030CB BKN090 27/23 Q1006 TEMPO 1500 TSRA=